This is the latest recevied weather packets stored in our database for station/object KF6RAL-6. If no packets are shown the sender has not sent any weather packets the latest 10 day(s).
| Time | Temp. | Humidity | Pressure | Rain* | Wind** | Luminosity | Snow |
|---|---|---|---|---|---|---|---|
| 1777734853 | 12.22° C | 64% | 1019.4 hPa | 0 mm | - | - | - |
| 1777734432 | 11.67° C | 64% | 1019.4 hPa | 0 mm | - | - | - |
| 1777734011 | 11.67° C | 66% | 1019.4 hPa | 0 mm | - | - | - |
| 1777733590 | 11.11° C | 67% | 1018.8 hPa | 0 mm | - | - | - |
| 1777733169 | 10.56° C | 67% | 1018.6 hPa | 0 mm | - | - | - |
| 1777732748 | 10.56° C | 66% | 1018.6 hPa | 0 mm | - | - | - |
| 1777732327 | 10.56° C | 63% | 1018.6 hPa | 0 mm | - | - | - |
| 1777731906 | 12.22° C | 61% | 1019.1 hPa | 0 mm | - | - | - |
| 1777731485 | 12.22° C | 60% | 1019 hPa | 0 mm | - | - | - |
| 1777731064 | 12.22° C | 59% | 1019 hPa | 0 mm | - | - | - |
| 1777730643 | 12.22° C | 59% | 1018.9 hPa | 0 mm | - | - | - |
| 1777730222 | 12.78° C | 58% | 1018.8 hPa | 0 mm | - | - | - |
| 1777729801 | 12.78° C | 59% | 1018.6 hPa | 0 mm | - | - | - |
| 1777729380 | 11.67° C | 61% | 1018.7 hPa | 0 mm | - | - | - |
| 1777728959 | 11.11° C | 65% | 1018.6 hPa | 0 mm | - | - | - |
| 1777728539 | 10.56° C | 66% | 1018.8 hPa | 0 mm | - | - | - |
| 1777728117 | 10.56° C | 67% | 1018.8 hPa | 0 mm | - | - | - |
| 1777727275 | 9.44° C | 69% | 1018.2 hPa | 0 mm | - | - | - |
| 1777726854 | 9.44° C | 70% | 1018.2 hPa | 0 mm | - | - | - |
| 1777726433 | 8.89° C | 69% | 1018.2 hPa | 0 mm | - | - | - |
| 1777726012 | 8.89° C | 67% | 1018.7 hPa | 0 mm | - | - | - |
| 1777725592 | 8.89° C | 68% | 1018.7 hPa | 0 mm | - | - | - |
| 1777725170 | 8.89° C | 67% | 1018.7 hPa | 0 mm | - | - | - |
| 1777724749 | 8.89° C | 65% | 1018.6 hPa | 0 mm | - | - | - |
| 1777724328 | 9.44° C | 65% | 1018.4 hPa | 0 mm | - | - | - |
* Rain latest hour (hover to see other rain measurements)
** Current wind speed in m/s (hover to see current wind gust speed)